Terminal Aerodrome Forecast
Issued by NWS

Home | Current Version | Previous Version | Text Only | Print | Product List | Glossary On
Versions: 1 2 3 4 5 6 7 8 9 10 11 12 13 14 15 16 17 18 19 20 21 22 23 24
000
FTUS42 KMFL 222341
TAFFXE
TAF
KFXE 222341Z 2300/2324 11015G25KT P6SM SCT025 SCT050 BKN250
     FM230200 10011KT P6SM FEW030 BKN090 BKN250
     FM231500 13015G25KT P6SM SCT050 BKN250
     FM232300 12008KT P6SM FEW030 SCT060 BKN250=

USA.gov is the U.S. government's official web portal to all federal, state and local government web resources and services.